Time;durP1;ratioP1;P1;durP2;ratioP2;P2;SDS_P1;SDS_P2;PMS_P1;PMS_P2;Temp;Humidity;BMP_temperature;BMP_pressure;BME280_temperature;BME280_humidity;BME280_pressure;Samples;Min_cycle;Max_cycle;Signal;HPM_P1;HPM_P2
2022/03/22 00:00:55;;;;;;;21.80;15.50;;;;;;;9.76;42.96;102111.19;4148459;28;20053;-58
2022/03/22 00:02:58;;;;;;;25.67;16.55;;;;;;;9.72;42.92;102110.16;4146106;28;20041;-58
2022/03/22 00:05:01;;;;;;;20.83;14.77;;;;;;;9.67;42.94;102118.59;4148053;28;20153;-59
2022/03/22 00:07:04;;;;;;;25.48;17.35;;;;;;;9.63;42.86;102114.94;4148452;28;20145;-58
2022/03/22 00:09:06;;;;;;;23.58;15.90;;;;;;;9.56;42.78;102113.78;4130121;28;20053;-58
2022/03/22 00:11:11;;;;;;;22.48;14.20;;;;;;;9.60;43.12;102118.28;4121927;28;20059;-58
2022/03/22 00:13:16;;;;;;;;;;;;;;;9.38;44.24;102113.81;4147739;28;20054;-59
2022/03/22 00:15:19;;;;;;;22.00;14.25;;;;;;;9.44;44.17;102110.63;4130224;28;19922;-58
2022/03/22 00:17:41;;;;;;;21.63;14.23;;;;;;;9.41;43.38;102110.50;4146972;28;20073;-59
2022/03/22 00:19:44;;;;;;;19.17;13.25;;;;;;;9.42;43.66;102109.69;4147669;28;20053;-58
2022/03/22 00:21:47;;;;;;;22.80;13.95;;;;;;;9.39;43.92;102115.63;4146879;28;20062;-58
2022/03/22 00:23:50;;;;;;;22.02;14.85;;;;;;;9.40;44.08;102119.09;4147208;28;20117;-58
2022/03/22 00:25:53;;;;;;;18.38;12.15;;;;;;;9.46;44.39;102113.28;4130085;28;20057;-59
2022/03/22 00:27:57;;;;;;;19.98;13.40;;;;;;;9.39;44.14;102110.41;4147282;28;20103;-59
2022/03/22 00:30:01;;;;;;;19.55;12.93;;;;;;;9.32;44.23;102110.97;4145122;28;20069;-58
2022/03/22 00:32:08;;;;;;;21.55;14.02;;;;;;;9.07;44.98;102108.94;4142737;28;20065;-59
2022/03/22 00:34:13;;;;;;;20.73;13.52;;;;;;;9.07;45.69;102111.53;4147345;28;20128;-58
2022/03/22 00:36:16;;;;;;;20.45;13.32;;;;;;;9.05;45.76;102114.06;4134058;28;20096;-58
2022/03/22 00:38:20;;;;;;;20.80;14.13;;;;;;;8.88;47.02;102112.38;4147198;28;20053;-58
2022/03/22 00:40:25;;;;;;;21.00;13.57;;;;;;;8.76;48.00;102115.28;4147955;28;20050;-58
2022/03/22 00:42:28;;;;;;;21.95;14.80;;;;;;;8.88;47.41;102112.38;4147349;28;20431;-58
2022/03/22 00:44:30;;;;;;;19.98;13.55;;;;;;;8.99;47.53;102118.06;4135882;28;20057;-58
2022/03/22 00:46:35;;;;;;;26.65;17.20;;;;;;;9.07;47.72;102114.13;4140149;28;20069;-58
2022/03/22 00:48:38;;;;;;;26.35;16.02;;;;;;;9.09;48.09;102113.34;4142788;28;20033;-58
2022/03/22 00:50:44;;;;;;;20.73;15.23;;;;;;;9.11;48.32;102112.56;4140022;28;20049;-58
2022/03/22 00:52:47;;;;;;;21.48;14.27;;;;;;;9.05;48.34;102106.28;4147314;28;20042;-59
2022/03/22 00:54:50;;;;;;;22.63;15.73;;;;;;;9.09;48.25;102108.16;4146717;28;20053;-59
2022/03/22 00:56:54;;;;;;;20.95;15.50;;;;;;;9.09;48.21;102100.38;4147808;28;20380;-58
2022/03/22 01:01:13;;;;;;;20.65;13.80;;;;;;;9.05;48.69;102114.06;4130654;28;20076;-58
2022/03/22 01:03:18;;;;;;;26.92;15.85;;;;;;;9.06;48.77;102108.03;4142454;28;20104;-58
2022/03/22 01:05:23;;;;;;;20.48;14.07;;;;;;;8.97;48.83;102109.31;4146917;28;20496;-59
2022/03/22 01:07:25;;;;;;;25.38;16.02;;;;;;;8.93;48.48;102103.09;4147687;28;20048;-59
2022/03/22 01:09:28;;;;;;;23.83;16.30;;;;;;;8.94;48.43;102104.00;4146888;28;20042;-58
2022/03/22 01:11:31;;;;;;;24.27;15.85;;;;;;;8.95;48.51;102104.06;4147430;28;20056;-58
2022/03/22 01:13:34;;;;;;;25.27;15.75;;;;;;;8.93;49.13;102100.50;4146080;28;20530;-58
2022/03/22 01:15:42;;;;;;;25.83;16.60;;;;;;;8.89;49.33;102106.34;4130967;28;20042;-59
2022/03/22 01:17:47;;;;;;;25.13;15.88;;;;;;;8.83;49.56;102108.66;4140893;28;20297;-58
2022/03/22 01:19:52;;;;;;;27.75;18.15;;;;;;;8.72;49.77;102103.84;4146693;28;20049;-59
2022/03/22 01:21:55;;;;;;;29.15;17.00;;;;;;;8.62;50.01;102104.22;4147322;28;20471;-59
2022/03/22 01:24:02;;;;;;;23.48;16.13;;;;;;;8.55;49.84;102104.72;4146682;28;20042;-58
2022/03/22 01:26:06;;;;;;;26.10;17.35;;;;;;;8.51;50.25;102092.41;4129846;28;20222;-58
2022/03/22 01:28:11;;;;;;;26.40;17.25;;;;;;;8.45;50.12;102092.13;4147308;28;20137;-58
2022/03/22 01:30:15;;;;;;;23.63;16.67;;;;;;;8.39;49.91;102088.38;4137087;28;20499;-58
2022/03/22 01:32:18;;;;;;;23.17;15.65;;;;;;;8.36;50.20;102090.81;4156112;28;20080;-58
2022/03/22 01:34:21;;;;;;;25.15;17.27;;;;;;;8.38;50.52;102091.78;4148836;28;20474;-58
2022/03/22 01:36:25;;;;;;;25.30;15.35;;;;;;;8.29;50.84;102087.84;4150384;28;20061;-58
2022/03/22 01:38:28;;;;;;;27.70;17.75;;;;;;;8.26;50.83;102087.69;4149800;28;20526;-58
2022/03/22 01:40:32;;;;;;;31.08;19.23;;;;;;;8.27;51.43;102092.97;4148856;28;20396;-58
2022/03/22 01:42:35;;;;;;;24.50;16.35;;;;;;;8.24;51.71;102091.94;4149994;28;20037;-58
2022/03/22 01:44:38;;;;;;;22.92;15.90;;;;;;;8.12;52.25;102079.22;4135157;28;20437;-58
2022/03/22 01:46:41;;;;;;;21.08;16.10;;;;;;;7.94;53.59;102086.97;4133653;28;20042;-58
2022/03/22 01:48:44;;;;;;;26.48;17.10;;;;;;;8.00;53.09;102088.19;4142260;28;20045;-58
2022/03/22 01:50:47;;;;;;;22.52;16.70;;;;;;;8.02;52.93;102083.06;4149089;28;20045;-58
2022/03/22 01:52:51;;;;;;;28.35;18.30;;;;;;;8.04;53.00;102084.94;4149332;28;20052;-58
2022/03/22 01:54:55;;;;;;;29.02;17.10;;;;;;;8.03;53.06;102092.59;4115798;28;20047;-58
2022/03/22 01:56:58;;;;;;;35.80;19.90;;;;;;;8.03;52.83;102085.75;4142636;28;20120;-58
2022/03/22 01:59:01;;;;;;;25.67;18.27;;;;;;;8.04;52.81;102079.75;4144432;28;20531;-58
2022/03/22 02:05:55;;;;;;;27.00;18.17;;;;;;;7.99;53.90;102080.34;4132198;28;20056;-58
2022/03/22 02:08:00;;;;;;;21.88;15.93;;;;;;;7.90;53.91;102078.16;4150236;28;20415;-58
2022/03/22 02:10:05;;;;;;;22.73;16.60;;;;;;;7.76;53.99;102073.97;4133994;28;20048;-58
2022/03/22 02:12:10;;;;;;;24.42;18.08;;;;;;;7.78;54.05;102075.84;4143273;28;20037;-58
2022/03/22 02:14:12;;;;;;;24.15;17.55;;;;;;;7.79;54.55;102076.72;4149281;28;20041;-58
2022/03/22 02:16:16;;;;;;;26.75;18.35;;;;;;;7.79;54.81;102077.59;4149765;28;20462;-58
2022/03/22 02:18:19;;;;;;;24.48;18.02;;;;;;;7.75;54.31;102070.47;4149229;28;20530;-58
2022/03/22 02:20:21;;;;;;;29.60;18.10;;;;;;;7.72;54.17;102066.84;4149978;28;20053;-57
2022/03/22 02:22:33;;;;;;;26.38;16.88;;;;;;;7.75;54.30;102074.78;4132209;28;20065;-58
2022/03/22 02:24:37;;;;;;;26.63;17.92;;;;;;;7.76;54.41;102073.97;4131849;28;20057;-58
2022/03/22 02:26:40;;;;;;;26.80;18.65;;;;;;;7.69;53.93;102073.66;4135242;28;20046;-58
2022/03/22 02:28:43;;;;;;;26.05;19.23;;;;;;;7.65;54.52;102065.63;4148933;28;20058;-58
2022/03/22 02:30:46;;;;;;;28.23;18.05;;;;;;;7.59;54.04;102066.19;4138824;28;20092;-58
2022/03/22 02:32:50;;;;;;;28.60;18.75;;;;;;;7.57;54.01;102070.41;4141348;28;20493;-58
2022/03/22 02:34:53;;;;;;;24.57;16.93;;;;;;;7.58;54.03;102066.13;4146975;28;20038;-58
2022/03/22 02:36:56;;;;;;;23.73;17.88;;;;;;;7.60;54.54;102065.38;4132290;28;20066;-57
2022/03/22 02:38:59;;;;;;;26.05;17.65;;;;;;;7.56;54.79;102063.44;4144960;28;20046;-57
2022/03/22 02:41:03;;;;;;;24.05;17.85;;;;;;;7.54;54.77;102069.38;4145414;28;20034;-58
2022/03/22 02:43:06;;;;;;;26.73;17.50;;;;;;;7.56;54.77;102076.38;4149210;28;20603;-57
2022/03/22 02:45:11;;;;;;;26.60;18.23;;;;;;;7.56;54.21;102067.75;4148490;28;20063;-58
2022/03/22 02:47:14;;;;;;;24.33;16.80;;;;;;;7.53;53.56;102068.47;4149789;28;20515;-58
2022/03/22 02:49:17;;;;;;;23.85;17.00;;;;;;;7.53;54.21;102073.63;4135686;28;20045;-58
2022/03/22 02:51:20;;;;;;;27.05;15.45;;;;;;;7.50;54.38;102069.22;4149315;28;20042;-57
2022/03/22 02:53:22;;;;;;;21.70;16.02;;;;;;;7.54;53.57;102070.25;4149257;28;20060;-58
2022/03/22 02:55:25;;;;;;;26.10;16.98;;;;;;;7.53;53.58;102065.00;4146842;28;20492;-58
2022/03/22 02:57:30;;;;;;;25.23;17.13;;;;;;;7.47;54.04;102057.81;4143734;28;20053;-58
2022/03/22 02:59:32;;;;;;;25.23;17.33;;;;;;;7.36;54.19;102064.09;4131933;28;20054;-58
2022/03/22 03:01:35;;;;;;;26.42;16.35;;;;;;;7.37;54.79;102066.75;4133442;28;20129;-57
2022/03/22 03:03:38;;;;;;;24.48;17.02;;;;;;;7.39;54.58;102064.25;4131493;28;20563;-58
2022/03/22 03:05:41;;;;;;;31.85;18.27;;;;;;;7.42;54.41;102065.31;4149020;28;20041;-58
2022/03/22 03:07:44;;;;;;;28.55;17.17;;;;;;;7.44;54.24;102075.75;4139479;28;20046;-58
2022/03/22 03:09:47;;;;;;;27.48;17.67;;;;;;;7.38;55.15;102067.66;4115805;28;20465;-58
2022/03/22 03:11:49;;;;;;;23.45;16.88;;;;;;;7.34;55.43;102067.50;4146233;28;20054;-58
2022/03/22 03:16:14;;;;;;;25.75;18.38;;;;;;;7.25;53.93;102067.00;4148858;28;20046;-58
2022/03/22 03:18:18;;;;;;;32.10;17.17;;;;;;;7.25;53.57;102067.00;4144582;28;20064;-58
2022/03/22 03:20:21;;;;;;;26.52;17.65;;;;;;;7.27;53.86;102067.09;4135312;28;20045;-58
2022/03/22 03:22:24;;;;;;;24.90;17.90;;;;;;;7.32;54.00;102066.53;4132338;28;20050;-58
2022/03/22 03:24:27;;;;;;;24.05;18.05;;;;;;;7.28;54.37;102066.28;4134503;28;20064;-58
2022/03/22 03:26:30;;;;;;;26.23;18.38;;;;;;;7.23;54.11;102083.25;4147510;28;20041;-58
2022/03/22 03:28:33;;;;;;;27.55;17.52;;;;;;;7.14;53.97;102076.78;4148345;28;20523;-58
2022/03/22 03:30:37;;;;;;;24.63;16.35;;;;;;;7.07;54.06;102081.53;4148865;28;20044;-58
2022/03/22 03:32:40;;;;;;;22.63;16.58;;;;;;;6.95;54.35;102081.72;4142727;28;20046;-58
2022/03/22 03:34:43;;;;;;;24.73;17.23;;;;;;;6.88;54.33;102082.19;4132728;28;20451;-58
2022/03/22 03:36:46;;;;;;;27.08;19.10;;;;;;;6.89;54.26;102091.75;4132170;28;20035;-59
2022/03/22 03:38:49;;;;;;;30.35;19.45;;;;;;;6.85;54.38;102085.53;4145435;28;20125;-58
2022/03/22 03:43:12;;;;;;;24.73;18.40;;;;;;;6.71;56.04;102094.19;4147688;28;20049;-58
2022/03/22 03:47:36;;;;;;;25.40;17.60;;;;;;;6.55;57.85;102097.59;4145207;28;20559;-58
2022/03/22 03:49:41;;;;;;;24.90;18.00;;;;;;;6.50;58.35;102099.94;4132530;28;20050;-57
2022/03/22 03:51:45;;;;;;;27.40;20.00;;;;;;;6.52;58.24;102095.72;4147292;28;20097;-57
2022/03/22 03:53:47;;;;;;;28.42;18.83;;;;;;;6.57;58.09;102103.75;4141426;28;20038;-58
2022/03/22 03:55:50;;;;;;;25.65;19.23;;;;;;;6.62;58.28;102108.38;4147530;28;20412;-58
2022/03/22 03:57:53;;;;;;;25.63;19.77;;;;;;;6.62;58.45;102102.31;4148418;28;20053;-59
2022/03/22 03:59:57;;;;;;;24.90;19.55;;;;;;;6.52;58.46;102106.06;4148554;28;20049;-58
2022/03/22 04:02:00;;;;;;;25.85;17.70;;;;;;;6.48;58.94;102101.53;4126317;28;20046;-58
2022/03/22 04:04:04;;;;;;;25.88;19.40;;;;;;;6.49;58.73;102105.00;4147533;28;20374;-57
2022/03/22 04:06:07;;;;;;;26.55;20.13;;;;;;;6.41;58.71;102096.81;4147271;28;20069;-58
2022/03/22 04:08:10;;;;;;;27.63;20.10;;;;;;;6.38;58.79;102099.22;4146457;28;20526;-57
2022/03/22 04:10:14;;;;;;;29.67;19.38;;;;;;;6.36;58.80;102098.25;4148039;28;20038;-57
2022/03/22 04:12:16;;;;;;;27.60;19.30;;;;;;;6.35;58.86;102101.63;4139548;28;20471;-57
2022/03/22 04:14:19;;;;;;;25.27;18.45;;;;;;;6.32;58.81;102104.91;4148084;28;20486;-57
2022/03/22 04:16:22;;;;;;;27.85;19.63;;;;;;;6.33;58.20;102098.94;4146108;28;20045;-57
2022/03/22 04:18:25;;;;;;;25.15;17.98;;;;;;;6.18;58.32;102114.44;4148120;28;20042;-57
2022/03/22 04:20:30;;;;;;;26.70;18.63;;;;;;;6.11;58.13;102104.56;4148196;28;20116;-57
2022/03/22 04:22:51;;;;;;;27.27;18.90;;;;;;;6.06;58.90;102103.38;4146972;28;20044;-56
2022/03/22 04:25:11;;;;;;;27.00;19.20;;;;;;;6.10;58.39;102100.19;4136499;28;20112;-58
2022/03/22 04:34:32;;;;;;;29.98;19.95;;;;;;;6.03;57.63;102100.63;4147268;28;20041;-58
2022/03/22 04:36:36;;;;;;;31.58;19.65;;;;;;;6.09;57.28;102101.00;4130154;28;20050;-58
2022/03/22 04:38:39;;;;;;;28.50;18.90;;;;;;;6.12;57.34;102108.94;4147953;28;20443;-58
2022/03/22 04:40:42;;;;;;;23.55;18.27;;;;;;;6.16;57.23;102113.44;4131526;28;20042;-58
2022/03/22 04:42:46;;;;;;;32.67;18.98;;;;;;;6.15;57.24;102111.69;4131460;28;20050;-58
2022/03/22 04:44:49;;;;;;;26.20;19.33;;;;;;;6.14;56.99;102111.59;4140319;28;20042;-58
2022/03/22 04:46:52;;;;;;;26.85;18.83;;;;;;;6.09;57.28;102116.50;4147922;28;20104;-58
2022/03/22 04:48:55;;;;;;;32.65;18.75;;;;;;;6.13;57.00;102118.44;4146575;28;20048;-58
2022/03/22 04:57:56;;;;;;;29.77;18.60;;;;;;;6.02;56.50;102119.50;4131559;28;20050;-58
2022/03/22 04:59:58;;;;;;;26.13;18.45;;;;;;;5.88;56.63;102119.53;4143062;28;20046;-58
2022/03/22 05:02:01;;;;;;;26.60;17.83;;;;;;;5.84;56.66;102122.75;4146623;28;20038;-58
2022/03/22 05:04:05;;;;;;;24.95;17.90;;;;;;;5.82;56.75;102124.31;4132349;28;20132;-58
2022/03/22 05:08:29;;;;;;;30.08;18.33;;;;;;;5.67;58.16;102124.28;4146119;28;20045;-58
2022/03/22 05:10:32;;;;;;;29.35;19.25;;;;;;;5.58;58.04;102132.34;4147154;28;20049;-58
2022/03/22 05:12:37;;;;;;;26.38;18.38;;;;;;;5.63;58.29;102135.22;4145403;28;20045;-58
2022/03/22 05:14:42;;;;;;;24.67;18.33;;;;;;;5.71;58.17;102128.84;4134548;28;20046;-58
2022/03/22 05:16:45;;;;;;;26.73;18.95;;;;;;;5.74;57.94;102133.31;4128382;28;20447;-58
2022/03/22 05:18:48;;;;;;;26.77;19.17;;;;;;;5.77;58.38;102136.94;4135255;28;20049;-58
2022/03/22 05:20:50;;;;;;;24.25;18.02;;;;;;;5.72;58.85;102140.03;4114974;28;20106;-58
2022/03/22 05:22:53;;;;;;;26.60;18.38;;;;;;;5.58;58.53;102129.78;4141549;28;20411;-58
2022/03/22 05:24:58;;;;;;;25.75;17.58;;;;;;;5.44;58.37;102129.72;4147155;28;20092;-58
2022/03/22 05:27:02;;;;;;;26.13;17.75;;;;;;;5.46;57.80;102133.28;4146752;28;20046;-57
2022/03/22 05:29:05;;;;;;;29.27;18.17;;;;;;;5.56;57.31;102128.81;4130197;28;20607;-57
2022/03/22 05:31:10;;;;;;;26.98;18.35;;;;;;;5.57;57.07;102127.97;4129849;28;20046;-58
2022/03/22 05:33:13;;;;;;;23.35;16.40;;;;;;;5.59;56.93;102134.16;4144996;28;20070;-58
2022/03/22 05:35:15;;;;;;;24.50;16.63;;;;;;;5.73;56.41;102137.56;4139658;28;20039;-57
2022/03/22 05:37:22;;;;;;;26.45;18.35;;;;;;;5.76;55.88;102136.84;4135441;28;20069;-58
2022/03/22 05:39:24;;;;;;;26.55;18.23;;;;;;;5.77;55.86;102143.81;4121996;28;20054;-58
2022/03/22 05:41:28;;;;;;;29.58;18.67;;;;;;;5.82;56.28;102137.22;4123296;28;20066;-58
2022/03/22 05:43:31;;;;;;;26.60;18.50;;;;;;;5.77;56.16;102138.66;4138273;28;20097;-58
2022/03/22 05:45:36;;;;;;;28.55;18.35;;;;;;;5.84;55.98;102148.56;4135095;28;20065;-57
2022/03/22 05:47:40;;;;;;;31.95;19.02;;;;;;;5.84;56.13;102148.56;4140375;28;20283;-58
2022/03/22 05:49:42;;;;;;;27.25;17.50;;;;;;;5.90;55.84;102156.66;4143000;28;20050;-57
2022/03/22 05:51:45;;;;;;;26.75;18.80;;;;;;;5.90;55.77;102154.06;4135761;28;20070;-59
2022/03/22 05:53:48;;;;;;;24.70;18.42;;;;;;;5.88;55.95;102150.50;4141660;28;20088;-59
2022/03/22 05:55:51;;;;;;;22.75;16.38;;;;;;;5.72;55.81;102153.88;4137982;28;20065;-59
2022/03/22 05:57:55;;;;;;;32.42;19.05;;;;;;;5.65;55.68;102151.69;4122766;28;20639;-58
2022/03/22 05:59:58;;;;;;;25.50;17.58;;;;;;;5.62;55.64;102150.59;4133886;28;20042;-59
2022/03/22 06:02:01;;;;;;;24.67;18.75;;;;;;;5.62;55.63;102159.22;4121451;28;20038;-59
2022/03/22 06:04:04;;;;;;;27.35;18.77;;;;;;;5.65;55.89;102150.78;4118814;28;20109;-59
2022/03/22 06:06:06;;;;;;;23.90;17.25;;;;;;;5.74;55.86;102151.38;4140456;28;20038;-59
2022/03/22 06:08:10;;;;;;;27.05;18.73;;;;;;;5.77;55.88;102147.28;4122188;28;20098;-56
2022/03/22 06:10:14;;;;;;;22.38;16.63;;;;;;;5.82;56.26;102150.13;4139146;28;20048;-58
2022/03/22 06:12:19;;;;;;;33.28;18.77;;;;;;;5.87;55.47;102156.47;4138071;28;20121;-58
2022/03/22 06:14:23;;;;;;;27.27;19.70;;;;;;;5.90;55.10;102153.19;4138868;28;20519;-59
2022/03/22 06:16:26;;;;;;;25.80;18.25;;;;;;;5.92;55.31;102156.75;4139284;28;20041;-60
2022/03/22 06:18:29;;;;;;;23.27;16.30;;;;;;;5.98;55.17;102149.41;4160306;28;20144;-59
2022/03/22 06:20:32;;;;;;;27.08;17.92;;;;;;;6.01;55.09;102156.44;4147439;28;20096;-59
2022/03/22 06:22:35;;;;;;;27.42;18.08;;;;;;;6.03;54.78;102158.31;4163880;28;20029;-59
2022/03/22 06:24:38;;;;;;;24.83;18.48;;;;;;;6.05;54.40;102161.00;4142766;28;20046;-59
2022/03/22 06:26:44;;;;;;;26.90;17.42;;;;;;;6.06;54.20;102162.75;4144442;28;20529;-59
2022/03/22 06:28:46;;;;;;;30.65;18.83;;;;;;;6.10;53.77;102162.16;4162959;28;20044;-59
2022/03/22 06:30:51;;;;;;;29.52;18.55;;;;;;;6.14;53.89;102163.25;4162014;28;20518;-59
2022/03/22 06:32:56;;;;;;;28.05;17.08;;;;;;;6.17;53.90;102158.25;4162816;28;20068;-59
2022/03/22 06:34:58;;;;;;;;;;;;;;;6.02;53.78;102164.28;4165263;28;20041;-59
2022/03/22 06:37:01;;;;;;;26.20;17.92;;;;;;;6.13;54.08;102167.50;4147127;28;20199;-59
2022/03/22 06:39:05;;;;;;;28.15;17.92;;;;;;;6.24;53.96;102163.88;4164930;28;20045;-59
2022/03/22 06:41:07;;;;;;;28.05;19.00;;;;;;;6.31;54.08;102165.13;4162998;28;20487;-59
2022/03/22 06:43:12;;;;;;;26.75;17.23;;;;;;;6.30;54.12;102160.75;4162228;28;20091;-59
2022/03/22 06:45:15;;;;;;;25.95;16.00;;;;;;;6.32;54.59;102155.69;4163159;28;20045;-58
2022/03/22 06:47:20;;;;;;;26.13;16.77;;;;;;;6.38;53.89;102168.97;4164465;28;20060;-58
2022/03/22 06:49:23;;;;;;;28.00;18.38;;;;;;;6.39;53.81;102165.59;4162276;28;20091;-58
2022/03/22 06:51:26;;;;;;;27.52;18.13;;;;;;;6.42;53.38;102161.47;4163952;28;20049;-58
2022/03/22 06:53:29;;;;;;;25.23;17.45;;;;;;;6.49;53.03;102170.47;4163662;28;20041;-57
2022/03/22 06:55:33;;;;;;;29.75;17.35;;;;;;;6.55;53.29;102160.50;4162870;28;20033;-58
2022/03/22 06:57:36;;;;;;;23.38;16.30;;;;;;;6.64;53.19;102165.31;4162223;28;20100;-58
2022/03/22 06:59:38;;;;;;;26.30;18.05;;;;;;;6.71;52.98;102158.81;4142892;28;20550;-57
2022/03/22 07:01:41;;;;;;;27.85;17.27;;;;;;;6.75;52.84;102173.69;4164098;28;20491;-57
2022/03/22 07:03:46;;;;;;;30.33;18.00;;;;;;;6.74;52.39;102169.31;4141708;28;20053;-57
2022/03/22 07:05:48;;;;;;;25.02;18.15;;;;;;;6.65;52.65;102172.25;4157030;28;20061;-57
2022/03/22 07:07:51;;;;;;;23.65;17.35;;;;;;;6.71;52.24;102166.56;4145000;28;20057;-57
2022/03/22 07:09:54;;;;;;;26.67;17.52;;;;;;;6.86;52.14;102171.72;4136785;28;20083;-57
2022/03/22 07:11:58;;;;;;;24.60;16.92;;;;;;;6.98;51.83;102168.13;4146028;28;20042;-57
2022/03/22 07:14:01;;;;;;;22.65;15.60;;;;;;;7.01;52.12;102174.28;4139141;28;20125;-57
2022/03/22 07:16:05;;;;;;;24.10;17.40;;;;;;;7.00;51.58;102178.56;4146300;28;20038;-58
2022/03/22 07:18:11;;;;;;;33.22;16.08;;;;;;;7.05;50.98;102174.53;4147942;28;20400;-57
2022/03/22 07:20:15;;;;;;;23.60;15.15;;;;;;;7.14;50.69;102180.22;4149047;28;20045;-57
2022/03/22 07:22:17;;;;;;;24.02;17.10;;;;;;;7.18;50.78;102165.75;4148524;28;20046;-57
2022/03/22 07:24:20;;;;;;;27.73;17.90;;;;;;;7.41;50.08;102174.78;4149058;28;20046;-57
2022/03/22 07:26:23;;;;;;;26.48;17.90;;;;;;;7.50;49.56;102174.41;4148638;28;20046;-57
2022/03/22 07:28:26;;;;;;;23.80;16.33;;;;;;;7.50;50.13;102174.41;4131387;28;20050;-57
2022/03/22 07:30:29;;;;;;;22.35;16.58;;;;;;;7.51;49.41;102173.59;4143578;28;20125;-57
2022/03/22 07:32:32;;;;;;;23.65;16.25;;;;;;;7.51;49.69;102178.78;4147590;28;20045;-57
2022/03/22 07:34:36;;;;;;;25.33;17.35;;;;;;;7.56;49.09;102172.16;4141368;28;20046;-57
2022/03/22 07:36:40;;;;;;;25.92;17.60;;;;;;;7.67;48.85;102173.63;4134783;28;22077;-57
2022/03/22 07:38:53;;;;;;;23.88;16.85;;;;;;;7.75;48.78;102167.97;4125768;28;20050;-57
2022/03/22 07:40:56;;;;;;;28.25;16.98;;;;;;;7.77;48.63;102175.00;4126298;28;20081;-57
2022/03/22 07:42:58;;;;;;;31.17;16.13;;;;;;;7.80;48.30;102171.72;4116497;28;20073;-57
2022/03/22 07:45:05;;;;;;;25.38;15.75;;;;;;;7.90;47.85;102168.78;4137842;28;20042;-57
2022/03/22 07:47:08;;;;;;;24.33;17.02;;;;;;;7.95;48.12;102175.09;4129647;28;20096;-57
2022/03/22 07:53:53;;;;;;;26.52;15.63;;;;;;;8.15;47.85;102180.44;4132874;28;20117;-57
2022/03/22 07:55:56;;;;;;;23.55;17.52;;;;;;;8.21;48.38;102175.56;4146564;28;20054;-57
2022/03/22 07:57:59;;;;;;;24.02;17.17;;;;;;;8.30;47.83;102169.97;4147522;28;20042;-57
2022/03/22 08:00:04;;;;;;;21.73;16.17;;;;;;;8.38;47.85;102166.94;4130962;28;20043;-57
2022/03/22 08:02:06;;;;;;;25.63;17.33;;;;;;;8.48;47.99;102170.03;4137418;28;20039;-57
2022/03/22 08:04:09;;;;;;;27.85;16.83;;;;;;;8.49;47.01;102174.41;4141614;28;20042;-57
2022/03/22 08:06:12;;;;;;;32.40;17.77;;;;;;;8.46;47.24;102184.63;4137624;28;20050;-57
2022/03/22 08:08:15;;;;;;;24.55;17.10;;;;;;;8.54;47.60;102185.88;4139589;28;20046;-57
2022/03/22 08:10:36;;;;;;;26.85;17.05;;;;;;;8.59;47.11;102183.56;4131235;28;20121;-58
2022/03/22 08:12:39;;;;;;;27.92;16.75;;;;;;;8.64;46.52;102182.94;4143708;28;20092;-58
2022/03/22 08:14:42;;;;;;;25.73;16.40;;;;;;;8.72;46.38;102175.56;4138168;28;20046;-58
2022/03/22 08:16:45;;;;;;;26.55;19.27;;;;;;;8.84;46.27;102180.47;4120795;28;20085;-59
2022/03/22 08:18:47;;;;;;;26.25;17.10;;;;;;;8.97;46.11;102181.94;4124655;28;20098;-58
2022/03/22 08:20:50;;;;;;;28.77;16.90;;;;;;;9.06;45.88;102182.38;4128704;28;20058;-58
2022/03/22 08:22:58;;;;;;;26.35;16.25;;;;;;;9.13;46.36;102179.28;4137050;28;20088;-58
2022/03/22 08:25:01;;;;;;;26.00;16.95;;;;;;;9.12;44.87;102187.00;4125312;28;20050;-59
2022/03/22 08:27:07;;;;;;;29.08;18.38;;;;;;;9.19;44.66;102189.94;4147526;28;20040;-58
2022/03/22 08:29:10;;;;;;;29.45;17.45;;;;;;;9.20;44.44;102190.81;4148067;28;20155;-58
2022/03/22 08:31:18;;;;;;;26.77;16.83;;;;;;;9.15;43.98;102184.53;4130387;28;20050;-58
2022/03/22 08:33:20;;;;;;;23.67;17.38;;;;;;;9.21;44.19;102188.31;4147419;28;20469;-58
2022/03/22 08:35:24;;;;;;;34.47;19.33;;;;;;;9.32;44.10;102186.22;4143912;28;20037;-58
2022/03/22 08:37:27;;;;;;;31.00;18.58;;;;;;;9.36;43.76;102188.16;4143750;28;20034;-57
2022/03/22 08:39:30;;;;;;;31.13;17.25;;;;;;;9.33;43.07;102180.22;4135259;28;20447;-57
2022/03/22 08:41:33;;;;;;;33.03;17.60;;;;;;;9.32;43.26;102180.16;4144684;28;20121;-57
2022/03/22 08:43:37;;;;;;;26.17;18.25;;;;;;;9.37;42.76;102183.84;4142289;28;20121;-58
2022/03/22 08:45:40;;;;;;;31.02;18.63;;;;;;;9.38;42.99;102186.50;4127450;28;20046;-58
2022/03/22 08:47:45;;;;;;;29.02;17.30;;;;;;;9.47;42.39;102186.03;4145495;28;20049;-58
2022/03/22 08:49:50;;;;;;;24.92;16.25;;;;;;;9.56;42.07;102180.41;4146954;28;20519;-58
2022/03/22 08:51:52;;;;;;;23.08;16.45;;;;;;;9.74;41.79;102181.25;4129226;28;20141;-59
2022/03/22 08:53:55;;;;;;;24.50;17.20;;;;;;;9.99;41.21;102186.63;4126338;28;20039;-58
2022/03/22 08:56:02;;;;;;;23.27;16.13;;;;;;;10.09;41.41;102184.53;4144329;28;20500;-58
2022/03/22 08:58:06;;;;;;;24.65;16.08;;;;;;;10.08;41.39;102177.53;4144098;28;20053;-58
2022/03/22 09:00:12;;;;;;;29.35;15.82;;;;;;;10.20;40.72;102176.31;4143440;28;20089;-58
2022/03/22 09:02:15;;;;;;;24.52;16.92;;;;;;;10.26;40.16;102179.16;4141819;28;20133;-58
2022/03/22 09:06:38;;;;;;;21.50;14.95;;;;;;;10.53;39.95;102173.38;4145218;28;20049;-58
2022/03/22 09:08:42;;;;;;;24.65;14.80;;;;;;;10.55;39.75;102169.16;4145142;28;20038;-58
2022/03/22 09:10:46;;;;;;;25.30;15.07;;;;;;;10.69;40.47;102173.22;4143395;28;20397;-58
2022/03/22 09:12:49;;;;;;;27.38;14.95;;;;;;;10.86;39.04;102178.22;4125350;28;20050;-59
2022/03/22 09:14:53;;;;;;;22.80;15.48;;;;;;;10.80;39.30;102174.53;4142444;28;20038;-59
2022/03/22 09:16:57;;;;;;;27.27;16.05;;;;;;;10.93;39.73;102178.53;4143384;28;20045;-59
2022/03/22 09:19:00;;;;;;;27.83;16.77;;;;;;;10.98;39.15;102168.28;4146348;28;20042;-59
2022/03/22 09:21:03;;;;;;;19.65;14.38;;;;;;;11.02;38.78;102174.53;4145450;28;20092;-59
2022/03/22 09:23:08;;;;;;;26.02;14.98;;;;;;;11.28;37.75;102175.56;4146026;28;20104;-59
2022/03/22 09:25:12;;;;;;;28.75;16.40;;;;;;;11.16;37.38;102174.25;4127459;28;20446;-59
2022/03/22 09:27:15;;;;;;;20.30;14.98;;;;;;;11.21;37.61;102176.16;4144992;28;20048;-58
2022/03/22 09:29:18;;;;;;;28.13;15.63;;;;;;;11.29;38.40;102177.34;4144981;28;20069;-59
2022/03/22 09:31:23;;;;;;;22.35;15.00;;;;;;;11.37;38.17;102175.91;4145572;28;20041;-58
2022/03/22 09:33:27;;;;;;;21.30;14.10;;;;;;;11.43;38.22;102170.06;4146122;28;20026;-58
2022/03/22 09:35:30;;;;;;;28.38;18.52;;;;;;;11.49;38.08;102171.19;4143299;28;20041;-58
2022/03/22 09:37:33;;;;;;;26.42;15.60;;;;;;;11.58;37.09;102169.72;4145689;28;20034;-59
2022/03/22 09:39:36;;;;;;;28.52;16.15;;;;;;;11.63;36.16;102163.00;4146434;28;20044;-57
2022/03/22 09:41:39;;;;;;;24.98;15.30;;;;;;;11.80;36.66;102164.50;4142207;28;20038;-58
2022/03/22 09:43:47;;;;;;;27.33;18.05;;;;;;;11.94;36.36;102158.94;4145933;28;20446;-58
2022/03/22 09:45:52;;;;;;;24.85;16.55;;;;;;;12.15;35.66;102159.72;4126831;28;20102;-58
2022/03/22 09:47:59;;;;;;;22.25;15.98;;;;;;;12.02;36.56;102157.50;4149540;28;20045;-58
2022/03/22 09:50:04;;;;;;;20.83;14.57;;;;;;;11.92;35.93;102160.59;4162083;28;20029;-58
2022/03/22 09:52:05;;;;;;;;;;;;;;;12.01;36.92;102161.81;4137622;28;20042;-56
2022/03/22 09:54:08;;;;;;;22.98;15.43;;;;;;;12.23;36.02;102171.28;4166632;28;19921;-58
2022/03/22 09:56:11;;;;;;;27.42;17.67;;;;;;;12.53;34.80;102167.09;4148079;28;20042;-58
2022/03/22 09:58:14;;;;;;;18.60;13.90;;;;;;;12.56;34.99;102165.44;4166737;28;20049;-58
2022/03/22 10:00:17;;;;;;;19.67;13.88;;;;;;;12.55;36.46;102163.66;4166086;28;20491;-56
2022/03/22 10:02:27;;;;;;;22.33;15.05;;;;;;;12.69;36.17;102158.03;4165686;28;20052;-58
2022/03/22 10:04:36;;;;;;;22.13;16.33;;;;;;;12.96;34.54;102151.94;4154361;28;20052;-58
2022/03/22 10:06:54;;;;;;;21.52;14.85;;;;;;;12.93;35.76;102150.09;4145561;28;20050;-57